Time;durP1;ratioP1;P1;durP2;ratioP2;P2;SDS_P1;SDS_P2;PMS_P1;PMS_P2;Temp;Humidity;BMP_temperature;BMP_pressure;BME280_temperature;BME280_humidity;BME280_pressure;Samples;Min_cycle;Max_cycle;Signal;HPM_P1;HPM_P2
2022/02/06 00:00:36;;;;;;;8.23;2.05;;;;;;;-2.96;100.00;93538.72;2106625;28;20437;-83
2022/02/06 00:01:38;;;;;;;6.95;2.30;;;;;;;-3.05;100.00;93533.53;2098145;28;20020;-85
2022/02/06 00:02:43;;;;;;;4.70;2.42;;;;;;;-3.13;100.00;93524.69;2090397;28;20025;-84
2022/02/06 00:03:44;;;;;;;8.50;2.33;;;;;;;-3.17;100.00;93526.41;2107086;28;20024;-85
2022/02/06 00:04:47;;;;;;;8.80;2.10;;;;;;;-3.15;100.00;93529.47;2106281;28;20024;-84
2022/02/06 00:05:49;;;;;;;3.58;2.10;;;;;;;-3.16;100.00;93533.19;2089931;28;20137;-82
2022/02/06 00:06:52;;;;;;;6.60;2.50;;;;;;;-3.24;100.00;93531.38;2098049;28;20099;-82
2022/02/06 00:07:53;;;;;;;8.27;2.30;;;;;;;-3.19;100.00;93525.19;2090148;28;20021;-84
2022/02/06 00:08:54;;;;;;;5.18;2.25;;;;;;;-3.14;100.00;93531.00;2090138;28;20110;-85
2022/02/06 00:09:55;;;;;;;10.57;2.83;;;;;;;-3.22;100.00;93521.38;2089869;28;20036;-82
2022/02/06 00:10:56;;;;;;;10.50;2.30;;;;;;;-3.29;100.00;93521.13;2089742;28;20127;-84
2022/02/06 00:11:57;;;;;;;7.00;2.15;;;;;;;-3.24;100.00;93520.94;2089684;28;20028;-83
2022/02/06 00:12:58;;;;;;;11.45;2.80;;;;;;;-3.27;100.00;93518.94;2093082;28;20047;-83
2022/02/06 00:13:59;;;;;;;8.65;3.40;;;;;;;-3.42;100.00;93517.66;2097991;28;20032;-82
2022/02/06 00:15:00;;;;;;;5.22;2.75;;;;;;;-3.33;100.00;93520.22;2089939;28;20055;-85
2022/02/06 00:16:02;;;;;;;7.15;2.45;;;;;;;-3.31;100.00;93524.03;2098470;28;20021;-83
2022/02/06 00:17:03;;;;;;;5.05;2.15;;;;;;;-3.27;100.00;93529.41;2106609;28;20027;-82
2022/02/06 00:18:04;;;;;;;9.65;2.30;;;;;;;-3.39;100.00;93521.47;2114749;28;20806;-82
2022/02/06 00:19:05;;;;;;;6.40;2.38;;;;;;;-3.41;100.00;93518.44;2106241;28;20115;-85
2022/02/06 00:20:07;;;;;;;9.20;2.60;;;;;;;-3.27;100.00;93523.41;2098197;28;20044;-84
2022/02/06 00:21:12;;;;;;;9.48;2.30;;;;;;;-3.25;100.00;93518.63;2104519;28;20050;-83
2022/02/06 00:22:26;;;;;;;5.82;2.00;;;;;;;-3.24;100.00;93513.09;2092198;28;20071;-85
2022/02/06 00:23:27;;;;;;;4.90;2.20;;;;;;;-3.29;100.00;93508.06;2091602;28;20387;-84
2022/02/06 00:24:38;;;;;;;8.73;2.10;;;;;;;-3.32;100.00;93509.44;2081853;28;20025;-83
2022/02/06 00:26:58;;;;;;;5.88;2.45;;;;;;;-3.25;100.00;93516.00;2106509;28;20094;-84
2022/02/06 00:28:23;;;;;;;6.47;2.20;;;;;;;-3.23;100.00;93506.78;2097895;28;20111;-83
2022/02/06 00:29:37;;;;;;;5.80;1.90;;;;;;;-3.14;100.00;93511.94;2096543;28;20063;-84
2022/02/06 00:30:50;;;;;;;4.35;1.90;;;;;;;-3.17;100.00;93518.56;2093674;28;20469;-82
2022/02/06 00:32:01;;;;;;;7.13;2.03;;;;;;;-3.07;100.00;93509.59;2092631;28;20048;-85
2022/02/06 00:39:58;;;;;;;5.18;1.30;;;;;;;-2.97;100.00;93508.41;2114435;28;20054;-82
2022/02/06 00:42:00;;;;;;;5.22;1.55;;;;;;;-2.96;100.00;93505.47;2106120;28;20020;-82
2022/02/06 00:43:01;;;;;;;7.75;1.75;;;;;;;-3.00;100.00;93509.06;2098119;28;20028;-83
2022/02/06 00:44:05;;;;;;;6.50;1.85;;;;;;;-2.92;100.00;93500.38;2106304;28;20092;-83
2022/02/06 00:45:07;;;;;;;8.63;1.80;;;;;;;-2.86;100.00;93493.84;2098001;28;20024;-83
2022/02/06 00:46:09;;;;;;;8.07;2.17;;;;;;;-2.88;100.00;93503.88;2104104;28;20028;-85
2022/02/06 00:47:10;;;;;;;7.80;1.38;;;;;;;-2.54;100.00;93493.09;2089988;28;20409;-82
2022/02/06 00:48:12;;;;;;;5.03;1.77;;;;;;;-2.44;100.00;93489.28;2097851;28;20028;-85
2022/02/06 00:49:16;;;;;;;8.57;1.55;;;;;;;-2.40;100.00;93486.78;2097989;28;20074;-84
2022/02/06 00:50:19;;;;;;;3.42;1.58;;;;;;;-2.47;100.00;93491.78;2089508;28;20107;-84
2022/02/06 00:52:34;;;;;;;6.40;1.58;;;;;;;-2.40;100.00;93486.78;2106025;28;20108;-85
2022/02/06 00:53:35;;;;;;;7.35;1.60;;;;;;;-2.37;100.00;93484.28;2090935;28;20032;-84
2022/02/06 00:54:36;;;;;;;3.35;1.20;;;;;;;-2.38;100.00;93482.00;2095565;28;20024;-83
2022/02/06 00:55:37;;;;;;;5.30;1.50;;;;;;;-2.46;100.00;93480.97;2106068;28;20081;-83
2022/02/06 00:56:41;;;;;;;5.22;1.40;;;;;;;-2.38;100.00;93477.50;2097643;28;20020;-83
2022/02/06 00:57:41;;;;;;;9.63;1.90;;;;;;;-2.44;100.00;93480.69;2098140;28;20082;-84
2022/02/06 00:58:43;;;;;;;5.07;1.23;;;;;;;-2.45;100.00;93476.53;2097796;28;20388;-83
2022/02/06 00:59:43;;;;;;;5.00;1.27;;;;;;;-2.51;100.00;93475.19;2101778;28;20099;-84
2022/02/06 01:00:44;;;;;;;6.53;1.40;;;;;;;-2.55;100.00;93480.31;2089416;28;20033;-81
2022/02/06 01:01:45;;;;;;;5.35;1.50;;;;;;;-2.54;100.00;93484.47;2081235;28;20033;-83
2022/02/06 01:02:46;;;;;;;7.70;1.70;;;;;;;-2.53;100.00;93467.69;2081509;28;20063;-85
2022/02/06 01:03:47;;;;;;;5.35;1.63;;;;;;;-2.48;100.00;93477.19;2081229;28;20060;-84
2022/02/06 01:04:48;;;;;;;7.07;1.50;;;;;;;-2.46;100.00;93480.22;2089410;28;20031;-83
2022/02/06 01:05:49;;;;;;;6.70;1.38;;;;;;;-2.53;100.00;93484.16;2096789;28;20024;-84
2022/02/06 01:06:50;;;;;;;3.80;1.05;;;;;;;-2.56;100.00;93479.56;2081326;28;20021;-82
2022/02/06 01:07:53;;;;;;;8.85;1.70;;;;;;;-2.51;100.00;93478.59;2089427;28;20025;-83
2022/02/06 01:08:54;;;;;;;4.15;1.65;;;;;;;-2.50;100.00;93476.72;2089710;28;20025;-84
2022/02/06 01:09:55;;;;;;;3.88;1.38;;;;;;;-2.52;100.00;93477.06;2089372;28;20059;-84
2022/02/06 01:10:56;;;;;;;2.72;1.15;;;;;;;-2.54;100.00;93469.53;2089350;28;20048;-85
2022/02/06 01:11:57;;;;;;;4.03;1.30;;;;;;;-2.48;100.00;93487.66;2080979;28;20425;-82
2022/02/06 01:13:12;;;;;;;3.53;1.40;;;;;;;-2.50;100.00;93477.50;2097744;28;20115;-84
2022/02/06 01:15:24;;;;;;;6.88;1.20;;;;;;;-2.34;100.00;93481.00;2097967;28;20020;-82
2022/02/06 01:16:31;;;;;;;9.70;1.92;;;;;;;-2.36;100.00;93474.59;2090119;28;20116;-83
2022/02/06 01:17:58;;;;;;;5.03;1.38;;;;;;;-2.39;100.00;93481.22;2090944;28;20074;-84
2022/02/06 01:19:04;;;;;;;6.13;1.33;;;;;;;-2.64;100.00;93480.41;2100108;28;20035;-84
2022/02/06 01:20:14;;;;;;;5.70;1.42;;;;;;;-2.39;100.00;93481.22;2090937;28;20039;-85
2022/02/06 01:21:44;;;;;;;4.07;1.15;;;;;;;-2.53;100.00;93475.53;2097398;28;20044;-82
2022/02/06 01:22:47;;;;;;;7.93;1.48;;;;;;;-2.64;100.00;93475.16;2102859;28;20031;-83
2022/02/06 01:23:58;;;;;;;5.88;1.20;;;;;;;-2.66;100.00;93473.97;2098823;28;20062;-85
2022/02/06 01:25:05;;;;;;;6.10;1.30;;;;;;;-2.64;100.00;93479.63;2090623;28;20390;-85
2022/02/06 01:26:16;;;;;;;5.05;1.13;;;;;;;-2.68;100.00;93471.66;2090968;28;20035;-85
2022/02/06 01:27:22;;;;;;;3.25;0.98;;;;;;;-2.63;100.00;93475.97;2105768;28;20407;-85
2022/02/06 01:28:38;;;;;;;6.63;1.52;;;;;;;-2.65;100.00;93472.88;2105492;28;20032;-84
2022/02/06 01:29:55;;;;;;;3.53;1.40;;;;;;;-2.64;100.00;93479.63;2101760;28;20035;-83
2022/02/06 01:31:22;;;;;;;4.70;1.33;;;;;;;-2.75;100.00;93478.53;2097454;28;20017;-82
2022/02/06 01:32:29;;;;;;;3.10;1.00;;;;;;;-2.60;100.00;93476.06;2096221;28;20065;-83
2022/02/06 01:33:36;;;;;;;6.82;1.17;;;;;;;-2.09;100.00;93471.34;2098506;28;20031;-85
2022/02/06 01:36:47;;;;;;;8.05;1.85;;;;;;;-2.44;100.00;93468.34;2097769;28;20030;-84
2022/02/06 01:37:56;;;;;;;5.72;1.33;;;;;;;-2.32;100.00;93468.38;2089908;28;20504;-83
2022/02/06 01:39:10;;;;;;;7.32;1.58;;;;;;;-2.38;100.00;93464.44;2083204;28;20112;-82
2022/02/06 01:41:21;;;;;;;7.18;1.27;;;;;;;-2.13;100.00;93461.84;2098369;28;20091;-84
2022/02/06 01:42:31;;;;;;;8.35;1.48;;;;;;;-1.84;100.00;93451.16;2098314;28;20058;-84
2022/02/06 01:43:41;;;;;;;6.78;1.40;;;;;;;-1.60;100.00;93454.81;2106257;28;20131;-82
2022/02/06 02:03:19;;;;;;;5.97;1.42;;;;;;;-1.68;100.00;93445.97;2106318;28;20056;-84
2022/02/06 02:04:35;;;;;;;3.75;1.20;;;;;;;-1.53;100.00;93449.78;2097351;28;20439;-83
2022/02/06 02:11:34;;;;;;;;;;;;;;;-1.53;100.00;93452.41;2144905;27;20125;-80
2022/02/06 02:13:59;;;;;;;9.52;1.70;;;;;;;-1.60;100.00;93447.72;2140626;27;20025;-82
2022/02/06 02:18:24;;;;;;;7.35;1.42;;;;;;;-1.74;100.00;93455.16;2130270;27;20395;-82
2022/02/06 02:25:30;;;;;;;8.70;1.52;;;;;;;-1.91;100.00;93460.66;2114056;28;20023;-81
2022/02/06 02:28:02;;;;;;;7.45;1.67;;;;;;;-1.57;100.00;93462.03;2123612;27;20030;-82
2022/02/06 02:42:57;;;;;;;7.68;1.70;;;;;;;-1.72;100.00;93437.25;2137958;27;20050;-81
2022/02/06 02:46:37;;;;;;;5.60;1.63;;;;;;;-1.76;100.00;93431.13;2129596;27;20128;-82
2022/02/06 02:47:41;;;;;;;5.32;1.35;;;;;;;-1.84;100.00;93427.56;2114157;28;20028;-80
2022/02/06 02:48:44;;;;;;;3.25;1.50;;;;;;;-1.66;100.00;93428.09;2104955;28;20349;-79
2022/02/06 02:49:58;;;;;;;6.90;1.30;;;;;;;-1.41;100.00;93418.28;2104817;28;20081;-83
2022/02/06 02:51:04;;;;;;;6.25;1.90;;;;;;;-1.56;100.00;93427.63;2125261;27;20030;-81
2022/02/06 02:52:12;;;;;;;9.90;1.85;;;;;;;-1.53;100.00;93421.72;2121063;28;20023;-80
2022/02/06 02:54:26;;;;;;;13.38;1.63;;;;;;;-1.41;100.00;93431.41;2121034;27;20028;-82
2022/02/06 02:57:00;;;;;;;7.13;1.70;;;;;;;-1.54;100.00;93414.97;2121044;28;20027;-79
2022/02/06 02:59:06;;;;;;;2.97;1.30;;;;;;;-1.61;100.00;93417.38;2112630;28;20019;-82
2022/02/06 03:01:38;;;;;;;4.88;1.65;;;;;;;-1.30;100.00;93393.13;2098729;28;20047;-81
2022/02/06 03:02:39;;;;;;;10.95;2.03;;;;;;;-1.44;100.00;93394.63;2105017;28;20027;-81
2022/02/06 03:03:41;;;;;;;7.50;1.65;;;;;;;-1.50;100.00;93398.56;2104197;28;20024;-80
2022/02/06 03:04:47;;;;;;;7.32;1.67;;;;;;;-1.37;100.00;93397.41;2120192;27;20019;-82
2022/02/06 03:05:50;;;;;;;7.03;2.00;;;;;;;-1.37;100.00;93381.69;2096462;28;20481;-82
2022/02/06 03:06:52;;;;;;;4.53;1.60;;;;;;;-1.44;100.00;93389.38;2096500;28;20757;-82
2022/02/06 03:07:54;;;;;;;7.55;1.40;;;;;;;-0.93;100.00;93382.47;2106833;28;20420;-83
2022/02/06 03:08:56;;;;;;;5.72;1.98;;;;;;;-1.00;100.00;93384.94;2111891;27;20031;-82
2022/02/06 03:09:59;;;;;;;6.60;1.67;;;;;;;-1.10;100.00;93386.19;2117125;27;20619;-82
2022/02/06 03:11:06;;;;;;;3.90;1.23;;;;;;;-1.17;100.00;93379.97;2121038;28;20038;-79
2022/02/06 03:12:07;;;;;;;6.05;1.48;;;;;;;-1.19;100.00;93384.78;2105383;28;20016;-81
2022/02/06 03:13:11;;;;;;;7.78;2.10;;;;;;;-1.26;100.00;93385.38;2104282;28;20055;-80
2022/02/06 03:14:18;;;;;;;9.23;1.67;;;;;;;-0.80;100.00;93389.19;2113034;28;20028;-80
2022/02/06 03:15:33;;;;;;;4.15;1.40;;;;;;;-0.86;100.00;93379.28;2113385;28;20024;-82
2022/02/06 03:16:35;;;;;;;6.93;1.58;;;;;;;-1.02;100.00;93377.38;2116467;27;20024;-82
2022/02/06 03:17:44;;;;;;;8.15;1.80;;;;;;;-1.03;100.00;93382.97;2112688;28;20368;-81
2022/02/06 03:19:55;;;;;;;7.80;1.83;;;;;;;-0.65;100.00;93373.81;2112512;28;20024;-82
2022/02/06 03:20:59;;;;;;;5.05;1.63;;;;;;;-0.92;100.00;93365.66;2096505;28;20031;-80
2022/02/06 03:22:00;;;;;;;7.97;1.70;;;;;;;-1.06;100.00;93368.66;2084863;28;20079;-81
2022/02/06 03:23:04;;;;;;;8.98;2.20;;;;;;;-1.15;100.00;93368.03;2098299;28;20048;-80
2022/02/06 03:24:27;;;;;;;5.60;1.40;;;;;;;-1.06;100.00;93376.53;2098829;28;20028;-81
2022/02/06 03:25:30;;;;;;;4.72;1.23;;;;;;;-1.05;100.00;93372.81;2101527;28;20028;-82
2022/02/06 03:26:31;;;;;;;7.35;1.58;;;;;;;-1.11;100.00;93374.16;2090312;28;20028;-81
2022/02/06 03:27:33;;;;;;;6.75;2.20;;;;;;;-0.91;100.00;93367.16;2090392;28;20028;-83
2022/02/06 03:28:33;;;;;;;6.93;1.67;;;;;;;-1.05;100.00;93370.19;2106676;28;20020;-82
2022/02/06 03:29:34;;;;;;;10.43;1.88;;;;;;;-0.91;100.00;93369.03;2098533;28;20035;-81
2022/02/06 03:30:35;;;;;;;6.30;1.42;;;;;;;-0.97;100.00;93378.22;2089992;28;20120;-83
2022/02/06 03:31:39;;;;;;;9.50;1.58;;;;;;;-1.03;100.00;93378.47;2098194;28;20024;-82
2022/02/06 03:32:40;;;;;;;7.75;1.60;;;;;;;-1.08;100.00;93377.97;2107092;28;20108;-81
2022/02/06 03:33:42;;;;;;;6.25;1.75;;;;;;;-1.08;100.00;93378.72;2098279;28;20033;-82
2022/02/06 03:34:43;;;;;;;5.07;1.95;;;;;;;-1.10;100.00;93377.53;2099056;28;20028;-80
2022/02/06 03:35:44;;;;;;;11.20;1.50;;;;;;;-1.15;100.00;93375.16;2107967;28;20477;-82
2022/02/06 03:36:45;;;;;;;8.50;1.40;;;;;;;-1.20;100.00;93370.91;2106652;28;20028;-81
2022/02/06 03:37:47;;;;;;;3.10;1.48;;;;;;;-1.26;100.00;93361.78;2098637;28;20029;-82
2022/02/06 03:38:51;;;;;;;7.85;1.67;;;;;;;-1.15;100.00;93364.66;2106778;28;20127;-81
2022/02/06 03:39:54;;;;;;;10.13;1.60;;;;;;;-1.23;100.00;93361.09;2107537;27;20016;-80
2022/02/06 03:41:03;;;;;;;17.30;1.90;;;;;;;-1.29;100.00;93365.81;2099440;28;20047;-83
2022/02/06 03:42:11;;;;;;;7.78;1.92;;;;;;;-0.89;100.00;93353.69;2100889;28;20036;-79
2022/02/06 03:43:19;;;;;;;9.45;1.80;;;;;;;-0.89;100.00;93351.06;2115103;28;20015;-81
2022/02/06 03:44:27;;;;;;;7.40;1.63;;;;;;;-0.98;100.00;93356.50;2110938;27;20829;-81
2022/02/06 03:45:37;;;;;;;11.00;1.75;;;;;;;-1.07;100.00;93351.41;2107610;28;20111;-80
2022/02/06 03:47:13;;;;;;;2.78;1.20;;;;;;;-1.10;100.00;93353.91;2112322;27;20019;-83
2022/02/06 03:49:17;;;;;;;4.43;1.48;;;;;;;-1.13;100.00;93347.50;2114855;28;20030;-81
2022/02/06 03:50:18;;;;;;;7.70;1.70;;;;;;;-0.89;100.00;93353.69;2115213;28;20035;-82
2022/02/06 03:51:22;;;;;;;5.63;1.73;;;;;;;-0.91;100.00;93348.03;2115038;28;20514;-81
2022/02/06 03:52:31;;;;;;;14.85;1.90;;;;;;;-1.03;100.00;93356.75;2100359;28;20112;-80
2022/02/06 03:53:32;;;;;;;5.80;1.38;;;;;;;-0.75;100.00;93356.66;2099246;28;20020;-81
2022/02/06 03:54:33;;;;;;;7.80;1.50;;;;;;;-0.58;100.00;93352.94;2098288;28;20102;-80
2022/02/06 03:55:34;;;;;;;6.03;1.17;;;;;;;-0.65;100.00;93345.69;2098169;28;20029;-81
2022/02/06 03:56:36;;;;;;;13.20;2.00;;;;;;;-0.56;100.00;93353.41;2097991;28;20038;-80
2022/02/06 03:57:37;;;;;;;7.90;1.55;;;;;;;-0.81;100.00;93350.91;2098306;28;20024;-82
2022/02/06 03:58:38;;;;;;;12.45;1.50;;;;;;;-0.74;100.00;93345.09;2098342;28;20028;-82
2022/02/06 03:59:39;;;;;;;8.82;1.38;;;;;;;-0.63;100.00;93345.34;2106626;28;20027;-82
2022/02/06 04:00:40;;;;;;;6.88;1.70;;;;;;;-0.71;100.00;93336.53;2106410;28;20397;-83
2022/02/06 04:01:40;;;;;;;9.60;2.38;;;;;;;-0.86;100.00;93338.06;2098273;28;20029;-81
2022/02/06 04:02:42;;;;;;;8.80;2.08;;;;;;;-0.92;100.00;93344.66;2106618;28;20023;-80
2022/02/06 04:03:43;;;;;;;8.50;1.83;;;;;;;-0.98;100.00;93340.75;2106501;28;20449;-82
2022/02/06 04:04:44;;;;;;;7.80;1.42;;;;;;;-0.98;100.00;93343.38;2097082;28;20032;-82
2022/02/06 04:05:47;;;;;;;8.27;1.40;;;;;;;-0.98;100.00;93337.38;2106677;28;20016;-81
2022/02/06 04:06:49;;;;;;;10.07;2.20;;;;;;;-0.92;100.00;93343.88;2106220;28;20028;-80
2022/02/06 04:07:52;;;;;;;13.45;2.63;;;;;;;-0.87;100.00;93335.78;2104603;27;20020;-81
2022/02/06 04:08:55;;;;;;;9.00;1.75;;;;;;;-0.78;100.00;93341.63;2106687;28;20031;-82
2022/02/06 04:09:57;;;;;;;7.72;1.63;;;;;;;-0.68;100.00;93341.09;2107147;27;20762;-81
2022/02/06 04:10:59;;;;;;;8.23;1.63;;;;;;;-0.69;100.00;93336.22;2106351;28;20431;-81
2022/02/06 04:12:02;;;;;;;7.20;1.50;;;;;;;-0.83;100.00;93337.38;2106436;28;20473;-82
2022/02/06 04:13:04;;;;;;;8.82;1.42;;;;;;;-0.90;100.00;93339.06;2098708;28;20043;-81
2022/02/06 04:14:16;;;;;;;7.20;1.65;;;;;;;-0.81;100.00;93332.56;2111348;28;20031;-82
2022/02/06 04:15:25;;;;;;;6.85;1.60;;;;;;;-0.29;100.00;93342.00;2114960;28;20127;-82
2022/02/06 04:16:27;;;;;;;8.32;1.70;;;;;;;-0.39;100.00;93337.28;2108994;28;20449;-81
2022/02/06 04:17:36;;;;;;;10.38;1.77;;;;;;;-0.48;100.00;93328.84;2106903;27;20077;-81
2022/02/06 04:18:49;;;;;;;11.40;1.85;;;;;;;-0.56;100.00;93314.78;2107489;28;20016;-81
2022/02/06 04:19:51;;;;;;;12.02;2.22;;;;;;;-0.42;100.00;93326.69;2116574;27;20039;-81
2022/02/06 04:20:52;;;;;;;6.30;1.52;;;;;;;-0.39;100.00;93329.41;2114819;28;20075;-82
2022/02/06 04:21:55;;;;;;;10.57;1.45;;;;;;;-0.63;100.00;93326.97;2106372;28;20051;-81
2022/02/06 04:22:55;;;;;;;8.57;1.90;;;;;;;-0.63;100.00;93321.72;2098487;28;20035;-82
2022/02/06 04:23:56;;;;;;;5.50;1.88;;;;;;;-0.80;100.00;93325.44;2106371;28;20476;-82
2022/02/06 04:24:57;;;;;;;4.63;1.65;;;;;;;-0.83;100.00;93324.28;2106290;28;20158;-80
2022/02/06 04:25:58;;;;;;;6.45;1.50;;;;;;;-0.90;100.00;93316.22;2106522;27;20028;-81
2022/02/06 04:27:00;;;;;;;6.20;1.70;;;;;;;-0.90;100.00;93312.84;2114660;28;20098;-82
2022/02/06 04:28:02;;;;;;;5.07;1.80;;;;;;;-0.89;100.00;93315.09;2106339;28;20032;-80
2022/02/06 04:29:09;;;;;;;13.98;2.33;;;;;;;-0.70;100.00;93303.94;2106629;28;20020;-80
2022/02/06 04:30:16;;;;;;;8.35;1.73;;;;;;;-0.62;100.00;93308.25;2115294;27;20019;-83
2022/02/06 04:31:23;;;;;;;7.95;1.48;;;;;;;-0.74;100.00;93291.84;2115496;27;20468;-82
2022/02/06 04:32:27;;;;;;;8.85;1.58;;;;;;;-0.71;100.00;93299.78;2124038;27;20058;-82
2022/02/06 04:33:28;;;;;;;5.38;1.35;;;;;;;-0.67;100.00;93295.38;2114285;28;20028;-81
2022/02/06 04:34:30;;;;;;;7.32;1.75;;;;;;;-0.76;100.00;93302.66;2097466;28;20031;-82
2022/02/06 04:35:34;;;;;;;5.78;1.55;;;;;;;-0.61;100.00;93299.28;2090740;28;20029;-82
2022/02/06 04:40:27;;;;;;;9.23;2.55;;;;;;;-0.56;100.00;93298.25;2106224;28;20031;-82
2022/02/06 04:44:34;;;;;;;7.47;1.80;;;;;;;-0.73;100.00;93309.88;2098057;28;20522;-83
2022/02/06 04:46:16;;;;;;;7.53;1.40;;;;;;;-0.69;100.00;93312.59;2100721;28;20031;-80
2022/02/06 04:47:24;;;;;;;6.13;1.70;;;;;;;-0.76;100.00;93313.16;2095500;28;20028;-81
2022/02/06 04:50:23;;;;;;;7.07;1.70;;;;;;;-0.63;100.00;93301.47;2108804;28;20103;-81
2022/02/06 05:15:07;;;;;;;12.85;2.22;;;;;;;-0.62;100.00;93292.50;2100256;28;20028;-82
2022/02/06 05:24:22;;;;;;;12.02;1.50;;;;;;;-0.44;100.00;93281.63;2116384;27;20024;-81
2022/02/06 05:27:09;;;;;;;7.40;1.55;;;;;;;-0.43;100.00;93267.41;2094610;28;20086;-84
2022/02/06 05:29:24;;;;;;;12.65;2.33;;;;;;;-0.15;100.00;93273.25;2112815;27;19961;-81
2022/02/06 05:30:43;;;;;;;8.57;1.70;;;;;;;-0.24;100.00;93267.44;2114115;28;20043;-81
2022/02/06 05:32:00;;;;;;;9.00;1.85;;;;;;;-0.33;100.00;93259.75;2110763;27;20115;-82
2022/02/06 05:33:01;;;;;;;10.27;1.90;;;;;;;-0.04;100.00;93270.88;2116410;27;20110;-81
2022/02/06 05:34:02;;;;;;;11.35;1.73;;;;;;;-0.17;100.00;93264.97;2111234;28;20028;-82
2022/02/06 05:35:05;;;;;;;4.85;1.52;;;;;;;-0.09;100.00;93261.41;2097447;28;20052;-81
2022/02/06 05:36:10;;;;;;;6.07;1.63;;;;;;;-0.08;100.00;93268.16;2097503;28;20032;-81
2022/02/06 05:37:11;;;;;;;6.03;1.63;;;;;;;-0.04;100.00;93255.88;2089645;28;20055;-79
2022/02/06 05:38:12;;;;;;;7.40;1.88;;;;;;;0.16;100.00;93263.75;2089019;28;20052;-80
2022/02/06 05:39:13;;;;;;;9.52;1.80;;;;;;;0.35;100.00;93255.88;2089017;28;20080;-80
2022/02/06 05:40:15;;;;;;;10.48;1.75;;;;;;;0.11;100.00;93246.38;2098038;28;20028;-80
2022/02/06 05:41:16;;;;;;;8.48;2.33;;;;;;;0.40;100.00;93247.69;2117498;27;20045;-83
2022/02/06 05:42:17;;;;;;;8.05;1.77;;;;;;;0.43;100.00;93244.34;2097218;28;20028;-83
2022/02/06 05:43:18;;;;;;;7.82;1.77;;;;;;;0.62;100.00;93232.31;2088971;28;20028;-81
2022/02/06 05:44:19;;;;;;;4.65;1.45;;;;;;;0.54;100.00;93246.44;2105706;28;20024;-82
2022/02/06 05:45:20;;;;;;;4.03;1.83;;;;;;;0.45;100.00;93244.03;2113939;28;20145;-82
2022/02/06 05:46:21;;;;;;;15.65;1.90;;;;;;;0.49;100.00;93244.84;2105573;28;20024;-81
2022/02/06 05:47:24;;;;;;;9.27;1.80;;;;;;;0.32;100.00;93268.94;2097321;28;20083;-81
2022/02/06 05:48:25;;;;;;;5.43;1.73;;;;;;;0.45;100.00;93270.31;2088938;28;20132;-83
2022/02/06 05:49:26;;;;;;;11.35;1.90;;;;;;;0.62;100.00;93256.72;2097303;28;20459;-83
2022/02/06 05:50:27;;;;;;;11.70;1.77;;;;;;;0.64;100.00;93257.13;2080731;28;20033;-82
2022/02/06 05:51:28;;;;;;;4.15;2.20;;;;;;;0.52;100.00;93273.06;2080639;28;20144;-81
2022/02/06 05:52:29;;;;;;;9.38;1.80;;;;;;;0.67;100.00;93256.44;2089202;28;20017;-82
2022/02/06 05:53:30;;;;;;;4.93;1.58;;;;;;;0.36;100.00;93267.13;2108178;28;20024;-81
2022/02/06 05:54:31;;;;;;;7.50;1.90;;;;;;;0.35;100.00;93271.63;2122552;27;20106;-81
2022/02/06 05:55:32;;;;;;;9.48;1.92;;;;;;;0.33;100.00;93268.59;2122695;27;20430;-82
2022/02/06 05:56:33;;;;;;;11.52;2.50;;;;;;;0.32;100.00;93263.69;2105518;28;20533;-81
2022/02/06 05:57:35;;;;;;;4.38;1.63;;;;;;;0.45;100.00;93270.31;2106023;28;20086;-80
2022/02/06 05:58:36;;;;;;;5.38;1.23;;;;;;;0.50;100.00;93265.53;2105586;28;20354;-80
2022/02/06 05:59:37;;;;;;;8.63;1.60;;;;;;;0.67;100.00;93276.72;2105855;28;20023;-82
2022/02/06 06:00:38;;;;;;;6.13;1.73;;;;;;;0.64;100.00;93269.53;2097357;28;20051;-80
2022/02/06 06:01:39;;;;;;;7.97;1.63;;;;;;;0.53;100.00;93266.72;2110149;28;20012;-81
2022/02/06 06:02:40;;;;;;;9.23;1.77;;;;;;;0.60;100.00;93279.97;2097222;28;20032;-81
2022/02/06 06:03:41;;;;;;;12.95;1.92;;;;;;;0.39;100.00;93269.81;2097147;28;20016;-81
2022/02/06 06:04:42;;;;;;;5.07;1.70;;;;;;;0.65;100.00;93261.28;2105642;28;20024;-81
2022/02/06 06:05:43;;;;;;;8.07;1.80;;;;;;;0.62;100.00;93259.34;2106321;28;20028;-80
2022/02/06 06:06:44;;;;;;;6.90;1.45;;;;;;;0.52;100.00;93256.53;2108978;28;20507;-81
2022/02/06 06:07:45;;;;;;;8.45;2.15;;;;;;;0.40;100.00;93258.22;2113988;28;20023;-82
2022/02/06 06:08:46;;;;;;;6.53;1.70;;;;;;;0.68;100.00;93270.34;2105795;28;20460;-82
2022/02/06 06:09:47;;;;;;;5.88;1.58;;;;;;;0.61;100.00;93259.69;2105947;28;20016;-80
2022/02/06 06:10:49;;;;;;;6.57;1.67;;;;;;;0.71;100.00;93257.25;2105593;28;20131;-80
2022/02/06 06:11:50;;;;;;;10.55;2.03;;;;;;;0.90;100.00;93243.28;2105872;28;20525;-81
2022/02/06 06:12:51;;;;;;;14.13;1.90;;;;;;;0.84;100.00;93247.34;2105803;28;20035;-81
2022/02/06 06:13:53;;;;;;;5.95;1.95;;;;;;;0.79;100.00;93246.84;2105762;28;20020;-80
2022/02/06 06:14:55;;;;;;;7.05;1.40;;;;;;;0.72;100.00;93243.00;2105663;28;20495;-80
2022/02/06 06:15:56;;;;;;;11.07;1.67;;;;;;;0.86;100.00;93258.25;2106056;28;20169;-82
2022/02/06 06:16:58;;;;;;;6.53;1.55;;;;;;;0.66;100.00;93270.72;2105178;28;20567;-81
2022/02/06 06:18:04;;;;;;;6.63;1.50;;;;;;;0.57;100.00;93258.84;2097391;28;20021;-80
2022/02/06 06:19:05;;;;;;;10.57;2.00;;;;;;;0.45;100.00;93257.16;2113424;28;20020;-81
2022/02/06 06:20:12;;;;;;;8.52;1.83;;;;;;;0.67;100.00;93247.78;2098793;28;20020;-82
2022/02/06 06:21:13;;;;;;;8.07;2.40;;;;;;;0.76;100.00;93243.06;2106306;28;20588;-81
2022/02/06 06:22:17;;;;;;;10.18;1.60;;;;;;;0.87;100.00;93245.84;2107885;28;20031;-80
2022/02/06 06:23:18;;;;;;;8.95;1.90;;;;;;;0.90;100.00;93243.28;2106605;28;20111;-81
2022/02/06 06:24:22;;;;;;;12.25;2.05;;;;;;;0.78;100.00;93245.31;2105793;28;20024;-81
2022/02/06 06:25:26;;;;;;;7.03;1.75;;;;;;;0.60;100.00;93247.66;2103629;28;20027;-82
2022/02/06 06:26:30;;;;;;;11.40;1.75;;;;;;;0.64;100.00;93246.59;2101834;28;20027;-80
2022/02/06 06:27:31;;;;;;;8.98;1.80;;;;;;;0.92;100.00;93246.34;2109197;28;20100;-80
2022/02/06 06:28:32;;;;;;;7.60;1.55;;;;;;;1.07;100.00;93257.84;2105566;28;20050;-81
2022/02/06 06:29:33;;;;;;;6.78;1.52;;;;;;;0.86;100.00;93250.38;2105526;28;20092;-81
2022/02/06 06:30:36;;;;;;;7.22;1.63;;;;;;;1.04;100.00;93244.63;2097098;28;20034;-81
2022/02/06 06:31:38;;;;;;;8.27;1.70;;;;;;;0.77;100.00;93251.72;2089144;28;20042;-80
2022/02/06 06:32:40;;;;;;;5.40;1.33;;;;;;;0.65;100.00;93247.38;2080891;28;20071;-80
2022/02/06 06:33:41;;;;;;;11.93;1.75;;;;;;;0.50;100.00;93243.72;2089068;28;20027;-82
2022/02/06 06:34:42;;;;;;;6.38;1.83;;;;;;;0.45;100.00;93231.63;2092954;28;20021;-80
2022/02/06 06:35:45;;;;;;;7.80;1.88;;;;;;;0.46;100.00;93243.66;2105410;28;20495;-81
2022/02/06 06:36:47;;;;;;;6.35;2.13;;;;;;;0.56;100.00;93252.84;2097257;28;20382;-81
2022/02/06 06:37:49;;;;;;;9.60;1.70;;;;;;;0.55;100.00;93250.56;2081102;28;20033;-83
2022/02/06 06:38:52;;;;;;;13.35;2.03;;;;;;;0.51;100.00;93250.50;2097667;28;20044;-82
2022/02/06 06:39:52;;;;;;;10.43;1.90;;;;;;;0.83;100.00;93256.31;2097144;28;20032;-82
2022/02/06 06:40:54;;;;;;;5.05;1.58;;;;;;;1.02;100.00;93239.72;2095171;28;20016;-82
2022/02/06 06:41:55;;;;;;;8.88;1.83;;;;;;;0.89;100.00;93247.03;2088496;28;20505;-81
2022/02/06 06:42:56;;;;;;;8.27;1.55;;;;;;;0.73;100.00;93252.41;2097403;28;20028;-80
2022/02/06 06:43:57;;;;;;;6.47;1.60;;;;;;;0.88;100.00;93256.03;2097375;28;20025;-80
2022/02/06 06:44:58;;;;;;;5.15;1.45;;;;;;;0.98;100.00;93244.94;2096994;28;20035;-81
2022/02/06 06:45:59;;;;;;;7.22;1.65;;;;;;;1.15;100.00;93243.69;2097136;28;20035;-81
2022/02/06 06:47:01;;;;;;;10.32;2.20;;;;;;;0.97;100.00;93263.72;2105421;28;20503;-83
2022/02/06 06:48:03;;;;;;;7.93;1.75;;;;;;;0.84;100.00;93255.22;2088818;28;20163;-81
2022/02/06 06:49:04;;;;;;;11.77;1.60;;;;;;;0.83;100.00;93253.69;2105725;28;20078;-81
2022/02/06 06:50:05;;;;;;;10.43;1.95;;;;;;;0.69;100.00;93258.72;2105445;28;20058;-82
2022/02/06 06:51:09;;;;;;;4.70;2.15;;;;;;;0.54;100.00;93265.59;2096931;28;20028;-82
2022/02/06 06:52:11;;;;;;;5.60;1.25;;;;;;;0.59;100.00;93254.03;2105279;28;20020;-83
2022/02/06 06:53:13;;;;;;;9.15;1.70;;;;;;;0.56;100.00;93250.22;2097097;28;20530;-81
2022/02/06 06:54:19;;;;;;;5.20;1.95;;;;;;;0.62;100.00;93256.72;2097151;28;20603;-81
2022/02/06 06:55:21;;;;;;;7.57;1.75;;;;;;;0.55;100.00;93259.22;2097082;28;20027;-81
2022/02/06 06:56:32;;;;;;;7.63;1.75;;;;;;;0.61;100.00;93260.44;2089125;28;20048;-80
2022/02/06 06:57:39;;;;;;;12.75;1.80;;;;;;;0.71;100.00;93262.53;2091091;28;20075;-81